createdAt,value
2019-03-01T00:02:30.148Z,51.00
2019-03-01T00:05:52.892Z,54.20
2019-03-01T00:08:41.299Z,57.17
2019-03-01T00:11:27.181Z,59.60
2019-03-01T00:14:37.976Z,56.23
2019-03-01T00:17:44.507Z,60.60
2019-03-01T00:20:29.732Z,55.53
2019-03-01T00:23:15.719Z,61.00
2019-03-01T00:26:09.872Z,64.03
2019-03-01T00:29:13.156Z,54.73
2019-03-01T00:31:49.899Z,63.03
2019-03-01T00:34:58.728Z,60.33
2019-03-01T00:37:57.569Z,65.27
2019-03-01T00:40:47.764Z,47.23
2019-03-01T00:43:58.063Z,53.90
2019-03-01T00:46:28.151Z,55.27
2019-03-01T00:48:58.771Z,65.57
2019-03-01T00:51:29.041Z,62.23
2019-03-01T00:53:59.512Z,57.57
2019-03-01T00:56:29.805Z,47.03
2019-03-01T00:58:59.905Z,56.63
2019-03-01T01:01:30.176Z,53.37
2019-03-01T01:04:00.620Z,53.73
2019-03-01T01:06:30.945Z,51.00
2019-03-01T01:09:01.373Z,50.83
2019-03-01T01:11:33.004Z,57.90
2019-03-01T01:14:03.326Z,56.93
2019-03-01T01:16:34.800Z,54.57
2019-03-01T01:19:04.931Z,54.70
2019-03-01T01:21:35.250Z,46.53
2019-03-01T01:24:05.782Z,56.58
2019-03-01T01:26:36.408Z,54.93
2019-03-01T01:29:06.728Z,51.80
2019-03-01T01:31:37.100Z,66.27
2019-03-01T01:34:07.481Z,47.53
2019-03-01T01:36:37.647Z,60.50
2019-03-01T01:39:08.814Z,45.33
2019-03-01T01:41:39.285Z,52.17
2019-03-01T01:44:09.857Z,64.90
2019-03-01T01:46:39.884Z,65.70
2019-03-01T01:49:10.208Z,67.00
2019-03-01T01:51:40.568Z,59.33
2019-03-01T01:54:10.907Z,60.70
2019-03-01T01:56:40.949Z,64.90
2019-03-01T01:59:11.341Z,60.07
2019-03-01T02:01:42.027Z,62.77
2019-03-01T02:04:12.620Z,59.73
2019-03-01T02:06:42.813Z,57.57
2019-03-01T02:09:24.593Z,56.90
2019-03-01T02:11:55.547Z,61.33
2019-03-01T02:14:27.221Z,61.97
2019-03-01T02:16:57.732Z,62.40
2019-03-01T02:19:27.900Z,64.67
2019-03-01T02:21:58.169Z,72.90
2019-03-01T02:24:28.269Z,70.70
2019-03-01T02:27:21.384Z,75.27
2019-03-01T02:29:51.811Z,63.83
2019-03-01T02:32:30.146Z,76.80
2019-03-01T02:35:00.697Z,67.37
2019-03-01T02:37:30.878Z,65.93
2019-03-01T02:40:02.248Z,70.87
2019-03-01T02:42:33.038Z,69.10
2019-03-01T02:45:03.101Z,62.30
2019-03-01T02:47:34.645Z,63.73
2019-03-01T02:50:05.504Z,69.63
2019-03-01T02:52:36.022Z,70.70
2019-03-01T02:55:07.017Z,71.87
2019-03-01T02:57:37.729Z,69.77
2019-03-01T03:00:12.221Z,64.30
2019-03-01T03:02:42.308Z,59.33
2019-03-01T03:05:12.560Z,60.00
2019-03-01T03:07:48.709Z,66.30
2019-03-01T03:10:19.052Z,61.40
2019-03-01T03:12:50.262Z,65.63
2019-03-01T03:15:28.395Z,67.27
2019-03-01T03:17:59.265Z,66.63
2019-03-01T03:20:29.458Z,69.83
2019-03-01T03:22:59.775Z,72.80
2019-03-01T03:25:29.885Z,54.97
2019-03-01T03:28:00.474Z,64.83
2019-03-01T03:30:30.504Z,72.90
2019-03-01T03:33:00.602Z,69.90
2019-03-01T03:35:30.702Z,63.43
2019-03-01T03:38:00.966Z,66.73
2019-03-01T03:40:31.277Z,63.60
2019-03-01T03:43:01.361Z,64.77
2019-03-01T03:45:31.616Z,68.93
2019-03-01T03:48:01.941Z,82.23
2019-03-01T03:50:32.200Z,58.50
2019-03-01T03:53:02.504Z,72.20
2019-03-01T03:55:33.027Z,68.60
2019-03-01T03:58:03.582Z,73.17
2019-03-01T04:00:34.503Z,74.97
2019-03-01T04:03:06.033Z,63.83
2019-03-01T04:05:36.129Z,66.00
2019-03-01T04:08:06.402Z,59.30
2019-03-01T04:10:36.468Z,68.37
2019-03-01T04:13:06.816Z,83.57
2019-03-01T04:15:36.847Z,67.80
2019-03-01T04:18:07.262Z,74.33
2019-03-01T04:20:37.544Z,80.93
2019-03-01T04:23:08.173Z,80.30
2019-03-01T04:25:38.680Z,76.03
2019-03-01T04:28:08.988Z,88.20
2019-03-01T04:30:39.024Z,84.07
2019-03-01T04:33:09.345Z,83.90
2019-03-01T04:35:39.656Z,70.27
2019-03-01T04:38:09.742Z,64.43
2019-03-01T04:40:40.323Z,70.23
2019-03-01T04:43:10.390Z,66.70
2019-03-01T04:45:41.252Z,61.17
2019-03-01T04:48:11.703Z,65.20
2019-03-01T04:50:42.115Z,81.43
2019-03-01T04:53:12.156Z,63.83
2019-03-01T04:55:43.322Z,69.00
2019-03-01T04:58:14.241Z,70.97
2019-03-01T05:00:44.580Z,69.90
2019-03-01T05:03:15.188Z,66.37
2019-03-01T05:05:45.511Z,75.93
2019-03-01T05:08:15.849Z,78.63
2019-03-01T05:10:46.144Z,73.73
2019-03-01T05:13:16.237Z,69.13
2019-03-01T05:15:46.505Z,73.47
2019-03-01T05:18:16.857Z,77.10
2019-03-01T05:20:47.233Z,71.60
2019-03-01T05:23:17.585Z,64.43
2019-03-01T05:25:47.856Z,71.03
2019-03-01T05:28:18.164Z,70.07
2019-03-01T05:30:48.833Z,66.87
2019-03-01T05:33:18.924Z,78.87
2019-03-01T05:35:50.177Z,68.80
2019-03-01T05:38:22.020Z,56.10
2019-03-01T05:40:52.266Z,64.20
2019-03-01T05:43:22.916Z,73.97
2019-03-01T05:45:53.715Z,74.00
2019-03-01T05:48:23.800Z,66.33
2019-03-01T05:50:54.236Z,71.53
2019-03-01T05:53:24.570Z,74.73
2019-03-01T05:55:54.875Z,69.47
2019-03-01T05:58:33.406Z,64.10
2019-03-01T06:01:20.621Z,80.13
2019-03-01T06:04:16.094Z,60.10
2019-03-01T06:07:14.645Z,68.57
2019-03-01T06:10:07.864Z,81.73
2019-03-01T06:13:18.405Z,68.73
2019-03-01T06:16:14.145Z,57.67
2019-03-01T06:19:41.000Z,71.70
2019-03-01T06:22:39.705Z,65.95
2019-03-01T06:25:38.029Z,74.37
2019-03-01T06:28:13.628Z,73.93
2019-03-01T06:31:08.749Z,75.67
2019-03-01T06:33:51.464Z,78.47
2019-03-01T06:36:28.436Z,65.37
2019-03-01T06:39:34.027Z,65.57
2019-03-01T06:42:30.696Z,71.23
2019-03-01T06:45:48.945Z,66.43
2019-03-01T06:48:29.922Z,65.83
2019-03-01T06:51:08.499Z,98.27
2019-03-01T06:53:39.065Z,81.50
2019-03-01T06:56:09.532Z,147.30
2019-03-01T06:58:43.132Z,97.13
2019-03-01T07:01:18.149Z,96.40
2019-03-01T07:04:04.004Z,85.20
2019-03-01T07:06:35.177Z,76.97
2019-03-01T07:09:07.439Z,67.80
2019-03-01T07:11:37.813Z,94.07
2019-03-01T07:14:08.404Z,80.53
2019-03-01T07:16:39.424Z,82.63
2019-03-01T07:19:09.912Z,78.23
2019-03-01T07:21:40.793Z,69.93
2019-03-01T07:24:11.202Z,84.30
2019-03-01T07:26:41.745Z,63.10
2019-03-01T07:29:11.989Z,63.90
2019-03-01T07:31:42.300Z,73.27
2019-03-01T07:34:12.657Z,92.50
2019-03-01T07:36:43.052Z,93.93
2019-03-01T07:39:13.098Z,86.13
2019-03-01T07:41:43.183Z,77.50
2019-03-01T07:44:13.269Z,72.13
2019-03-01T07:46:52.568Z,73.10
2019-03-01T07:49:16.089Z,68.53
2019-03-01T07:51:46.429Z,77.30
2019-03-01T07:54:18.083Z,64.30
2019-03-01T07:56:48.548Z,69.57
2019-03-01T07:59:18.597Z,75.53
2019-03-01T08:01:48.908Z,68.93
2019-03-01T08:04:19.257Z,69.80
2019-03-01T08:06:49.665Z,68.13
2019-03-01T08:09:19.984Z,69.37
2019-03-01T08:11:50.290Z,67.93
2019-03-01T08:14:20.633Z,65.73
2019-03-01T08:16:52.669Z,61.27
2019-03-01T08:19:23.538Z,57.50
2019-03-01T08:21:54.043Z,56.97
2019-03-01T08:24:24.524Z,60.47
2019-03-01T08:26:57.005Z,68.97
2019-03-01T08:29:30.732Z,67.67
2019-03-01T08:31:59.453Z,71.40
2019-03-01T08:34:29.472Z,63.27
2019-03-01T08:36:59.781Z,62.07
2019-03-01T08:39:30.105Z,59.43
2019-03-01T08:42:01.372Z,58.37
2019-03-01T08:44:32.033Z,55.80
2019-03-01T08:47:02.333Z,58.13
2019-03-01T08:49:32.863Z,60.27
2019-03-01T08:52:03.121Z,52.37
2019-03-01T08:54:34.017Z,57.17
2019-03-01T08:57:04.476Z,57.50
2019-03-01T08:59:34.851Z,48.07
2019-03-01T09:02:04.894Z,56.00
2019-03-01T09:04:38.035Z,53.73
2019-03-01T09:07:07.114Z,58.57
2019-03-01T09:09:37.209Z,48.93
2019-03-01T09:12:07.557Z,52.67
2019-03-01T09:14:37.649Z,57.80
2019-03-01T09:17:07.920Z,55.37
2019-03-01T09:19:39.044Z,52.33
2019-03-01T09:22:09.060Z,47.60
2019-03-01T09:24:39.184Z,54.47
2019-03-01T09:27:09.600Z,52.23
2019-03-01T09:29:42.074Z,44.13
2019-03-01T09:32:11.445Z,52.40
2019-03-01T09:34:42.466Z,56.17
2019-03-01T09:37:12.605Z,50.27
2019-03-01T09:39:43.680Z,43.70
2019-03-01T09:42:15.579Z,44.57
2019-03-01T09:44:46.214Z,42.93
2019-03-01T09:47:16.256Z,42.10
2019-03-01T09:49:46.604Z,49.47
2019-03-01T09:52:17.318Z,52.00
2019-03-01T09:54:49.028Z,52.60
2019-03-01T09:57:19.402Z,46.37
2019-03-01T09:59:50.280Z,44.27
2019-03-01T10:02:20.548Z,49.53
2019-03-01T10:04:50.869Z,46.10
2019-03-01T10:07:20.997Z,49.23
2019-03-01T10:09:51.555Z,56.70
2019-03-01T10:12:21.565Z,54.77
2019-03-01T10:14:51.704Z,47.00
2019-03-01T10:17:21.744Z,52.50
2019-03-01T10:19:51.838Z,49.00
2019-03-01T10:22:21.881Z,50.70
2019-03-01T10:24:52.356Z,52.17
2019-03-01T10:27:22.394Z,41.33
2019-03-01T10:29:52.624Z,59.03
2019-03-01T10:32:22.655Z,39.80
2019-03-01T10:34:52.879Z,42.30
2019-03-01T10:37:22.916Z,49.33
2019-03-01T10:39:55.580Z,48.53
2019-03-01T10:42:26.286Z,42.23
2019-03-01T10:44:56.967Z,49.27
2019-03-01T10:47:27.012Z,44.93
2019-03-01T10:49:57.212Z,55.73
2019-03-01T10:52:27.481Z,48.90
2019-03-01T10:54:57.788Z,47.23
2019-03-01T10:57:28.136Z,41.27
2019-03-01T10:59:58.238Z,53.73
2019-03-01T11:02:28.861Z,42.00
2019-03-01T11:04:59.228Z,52.33
2019-03-01T11:07:29.585Z,60.63
2019-03-01T11:10:00.038Z,49.57
2019-03-01T11:12:30.620Z,52.10
2019-03-01T11:15:00.872Z,43.40
2019-03-01T11:17:31.446Z,42.03
2019-03-01T11:20:02.156Z,40.13
2019-03-01T11:22:32.189Z,45.73
2019-03-01T11:25:02.265Z,42.60
2019-03-01T11:27:32.292Z,39.43
2019-03-01T11:30:02.841Z,50.53
2019-03-01T11:32:34.209Z,45.90
2019-03-01T11:35:05.247Z,39.13
2019-03-01T11:37:35.600Z,44.70
2019-03-01T11:40:07.367Z,41.23
2019-03-01T11:42:37.964Z,37.47
2019-03-01T11:45:09.092Z,45.80
2019-03-01T11:47:39.309Z,44.27
2019-03-01T11:50:12.525Z,42.83
2019-03-01T11:52:42.564Z,38.90
2019-03-01T11:55:13.740Z,43.30
2019-03-01T11:57:44.066Z,41.20
2019-03-01T12:00:23.445Z,46.53
2019-03-01T12:02:54.075Z,41.80
2019-03-01T12:05:24.616Z,43.10
2019-03-01T12:07:54.651Z,45.03
2019-03-01T12:10:25.580Z,43.00
2019-03-01T12:12:56.424Z,37.67
2019-03-01T12:15:26.580Z,42.80
2019-03-01T12:17:56.658Z,52.00
2019-03-01T12:20:27.571Z,45.10
2019-03-01T12:22:57.964Z,48.40
2019-03-01T12:25:28.141Z,42.87
2019-03-01T12:27:58.640Z,47.10
2019-03-01T12:30:28.723Z,52.23
2019-03-01T12:32:58.929Z,41.17
2019-03-01T12:35:28.978Z,43.23
2019-03-01T12:37:59.015Z,51.10
2019-03-01T12:40:29.414Z,49.30
2019-03-01T12:42:59.517Z,44.67
2019-03-01T12:45:29.850Z,44.60
2019-03-01T12:48:00.102Z,59.57
2019-03-01T12:50:30.410Z,71.60
2019-03-01T12:53:00.431Z,54.93
2019-03-01T12:55:30.937Z,74.63
2019-03-01T12:58:00.980Z,71.67
2019-03-01T13:00:31.512Z,83.83
2019-03-01T13:03:05.332Z,66.07
2019-03-01T13:05:34.013Z,61.90
2019-03-01T13:08:04.475Z,68.33
2019-03-01T13:10:36.878Z,75.17
2019-03-01T13:13:08.298Z,70.00
2019-03-01T13:15:38.401Z,73.57
2019-03-01T13:18:10.305Z,69.60
2019-03-01T13:20:40.627Z,62.40
2019-03-01T13:23:11.165Z,67.53
2019-03-01T13:25:41.598Z,47.37
2019-03-01T13:28:13.404Z,63.63
2019-03-01T13:30:43.857Z,48.70
2019-03-01T13:33:15.107Z,43.33
2019-03-01T13:35:45.487Z,51.07
2019-03-01T13:38:15.889Z,42.37
2019-03-01T13:40:45.930Z,63.13
2019-03-01T13:43:16.781Z,45.87
2019-03-01T13:45:47.439Z,53.03
2019-03-01T13:48:19.778Z,46.43
2019-03-01T13:50:50.357Z,40.90
2019-03-01T13:53:22.364Z,36.40
2019-03-01T13:55:53.022Z,37.23
2019-03-01T13:58:26.829Z,37.03
2019-03-01T14:00:55.601Z,43.00
2019-03-01T14:03:27.866Z,43.20
2019-03-01T14:05:58.197Z,39.13
2019-03-01T14:08:28.464Z,39.33
2019-03-01T14:10:58.742Z,35.00
2019-03-01T14:13:29.326Z,40.63
2019-03-01T14:15:59.990Z,38.93
2019-03-01T14:18:33.329Z,37.43
2019-03-01T14:21:03.990Z,41.87
2019-03-01T14:23:35.866Z,34.07
2019-03-01T14:26:06.140Z,42.73
2019-03-01T14:28:38.104Z,34.40
2019-03-01T14:31:08.460Z,35.60
2019-03-01T14:33:38.568Z,37.03
2019-03-01T14:36:09.460Z,49.00
2019-03-01T14:38:39.768Z,37.50
2019-03-01T14:41:10.028Z,29.57
2019-03-01T14:43:40.604Z,31.90
2019-03-01T14:46:10.624Z,28.27
2019-03-01T14:48:42.898Z,26.37
2019-03-01T14:51:13.139Z,27.50
2019-03-01T14:53:43.294Z,32.43
2019-03-01T14:56:17.641Z,27.53
2019-03-01T14:59:23.860Z,31.63
2019-03-01T15:02:39.722Z,36.40
2019-03-01T15:05:17.673Z,24.03
2019-03-01T15:07:40.465Z,26.90
2019-03-01T15:10:11.334Z,28.13
2019-03-01T15:12:42.269Z,33.90
2019-03-01T15:15:12.747Z,30.23
2019-03-01T15:17:44.022Z,23.97
2019-03-01T15:20:17.240Z,29.43
2019-03-01T15:22:48.683Z,23.70
2019-03-01T15:25:18.145Z,17.63
2019-03-01T15:27:48.799Z,22.77
2019-03-01T15:30:18.919Z,30.70
2019-03-01T15:32:49.944Z,22.50
2019-03-01T15:35:20.324Z,16.40
2019-03-01T15:37:51.565Z,23.60
2019-03-01T15:40:21.884Z,18.50
2019-03-01T15:42:54.693Z,21.33
2019-03-01T15:45:24.885Z,19.20
2019-03-01T15:47:55.331Z,11.50
2019-03-01T15:50:27.449Z,15.63
2019-03-01T15:52:57.920Z,17.20
2019-03-01T15:55:29.660Z,12.73
2019-03-01T15:57:59.859Z,14.10
2019-03-01T16:00:31.285Z,16.47
2019-03-01T16:03:01.936Z,14.53
2019-03-01T16:05:34.246Z,18.30
2019-03-01T16:08:08.307Z,21.33
2019-03-01T16:10:38.732Z,12.83
2019-03-01T16:13:12.206Z,19.63
2019-03-01T16:15:41.929Z,16.07
2019-03-01T16:18:13.136Z,15.17
2019-03-01T16:20:44.471Z,17.50
2019-03-01T16:23:15.943Z,16.60
2019-03-01T16:25:47.163Z,15.33
2019-03-01T16:28:18.723Z,15.00
2019-03-01T16:30:49.748Z,12.80
2019-03-01T16:33:22.499Z,18.10
2019-03-01T16:35:54.246Z,19.20
2019-03-01T16:38:25.077Z,12.23
2019-03-01T16:40:55.412Z,14.00
2019-03-01T16:43:28.562Z,12.97
2019-03-01T16:45:59.185Z,15.00
2019-03-01T16:48:29.493Z,12.67
2019-03-01T16:50:59.792Z,22.60
2019-03-01T16:53:30.702Z,18.37
2019-03-01T16:56:02.504Z,18.33
2019-03-01T16:58:33.127Z,12.07
2019-03-01T17:01:03.213Z,14.23
2019-03-01T17:03:33.233Z,8.90
2019-03-01T17:06:03.684Z,13.90
2019-03-01T17:08:36.431Z,14.77
2019-03-01T17:11:06.568Z,14.80
2019-03-01T17:13:36.975Z,12.17
2019-03-01T17:16:07.469Z,16.77
2019-03-01T17:18:38.005Z,21.50
2019-03-01T17:21:08.764Z,15.13
2019-03-01T17:23:40.392Z,13.80
2019-03-01T17:26:10.928Z,13.93
2019-03-01T17:28:41.701Z,18.20
2019-03-01T17:31:11.952Z,20.40
2019-03-01T17:33:45.028Z,18.60
2019-03-01T17:36:16.890Z,15.43
2019-03-01T17:38:47.602Z,14.33
2019-03-01T17:41:18.092Z,16.47
2019-03-01T17:43:48.172Z,14.33
2019-03-01T17:46:18.205Z,12.90
2019-03-01T17:48:49.501Z,14.63
2019-03-01T17:51:21.191Z,20.83
2019-03-01T17:53:51.603Z,14.93
2019-03-01T17:56:22.720Z,16.27
2019-03-01T17:58:53.075Z,12.47
2019-03-01T18:01:23.433Z,17.40
2019-03-01T18:03:53.763Z,13.80
2019-03-01T18:06:24.096Z,12.50
2019-03-01T18:08:54.165Z,13.00
2019-03-01T18:11:26.060Z,11.43
2019-03-01T18:14:00.609Z,19.67
2019-03-01T18:16:30.592Z,13.57
2019-03-01T18:19:00.942Z,16.70
2019-03-01T18:21:31.200Z,12.70
2019-03-01T18:24:02.457Z,13.90
2019-03-01T18:26:32.793Z,15.80
2019-03-01T18:29:04.410Z,16.93
2019-03-01T18:31:35.992Z,17.13
2019-03-01T18:34:06.322Z,13.27
2019-03-01T18:36:36.604Z,17.93
2019-03-01T18:39:12.519Z,17.90
2019-03-01T18:41:42.880Z,11.20
2019-03-01T18:44:13.504Z,18.53
2019-03-01T18:46:44.097Z,13.90
2019-03-01T18:49:16.770Z,16.13
2019-03-01T18:51:46.213Z,14.83
2019-03-01T18:54:16.997Z,14.23
2019-03-01T18:56:47.110Z,17.43
2019-03-01T18:59:17.436Z,15.87
2019-03-01T19:01:47.951Z,13.30
2019-03-01T19:04:29.394Z,16.70
2019-03-01T19:06:52.600Z,14.10
2019-03-01T19:09:22.989Z,14.83
2019-03-01T19:11:53.497Z,16.27
2019-03-01T19:14:23.577Z,16.00
2019-03-01T19:16:54.044Z,14.43
2019-03-01T19:19:29.715Z,18.73
2019-03-01T19:21:57.230Z,13.90
2019-03-01T19:24:27.752Z,23.40
2019-03-01T19:26:58.537Z,15.77
2019-03-01T19:29:29.380Z,20.10
2019-03-01T19:31:59.709Z,14.33
2019-03-01T19:34:29.976Z,15.20
2019-03-01T19:37:00.659Z,16.90
2019-03-01T19:39:32.544Z,15.43
2019-03-01T19:42:02.966Z,21.27
2019-03-01T19:44:34.628Z,18.97
2019-03-01T19:47:05.046Z,18.37
2019-03-01T19:49:35.449Z,16.70
2019-03-01T19:52:05.580Z,18.67
2019-03-01T19:54:36.479Z,21.20
2019-03-01T19:57:06.965Z,15.60
2019-03-01T19:59:37.323Z,14.20
2019-03-01T20:02:07.656Z,24.03
2019-03-01T20:04:38.141Z,21.37
2019-03-01T20:07:08.400Z,21.23
2019-03-01T20:09:39.946Z,27.47
2019-03-01T20:12:10.862Z,20.47
2019-03-01T20:14:41.001Z,18.40
2019-03-01T20:17:11.371Z,23.67
2019-03-01T20:19:41.766Z,16.33
2019-03-01T20:22:15.463Z,20.20
2019-03-01T20:24:44.629Z,24.83
2019-03-01T20:27:14.896Z,24.73
2019-03-01T20:29:45.452Z,24.33
2019-03-01T20:32:15.797Z,24.07
2019-03-01T20:34:47.113Z,27.77
2019-03-01T20:37:17.596Z,23.30
2019-03-01T20:39:50.945Z,21.50
2019-03-01T20:42:24.385Z,23.53
2019-03-01T20:44:53.949Z,24.83
2019-03-01T20:47:24.537Z,22.73
2019-03-01T20:49:54.804Z,20.33
2019-03-01T20:52:25.413Z,24.30
2019-03-01T20:54:57.772Z,28.30
2019-03-01T20:57:28.776Z,21.60
2019-03-01T20:59:59.032Z,26.47
2019-03-01T21:02:29.721Z,24.57
2019-03-01T21:05:00.472Z,23.40
2019-03-01T21:07:30.802Z,22.60
2019-03-01T21:10:01.064Z,27.13
2019-03-01T21:12:33.473Z,23.80
2019-03-01T21:15:03.857Z,27.37
2019-03-01T21:17:34.348Z,23.70
2019-03-01T21:20:05.738Z,25.67
2019-03-01T21:22:36.676Z,22.67
2019-03-01T21:25:08.969Z,27.50
2019-03-01T21:27:40.281Z,28.10
2019-03-01T21:30:24.124Z,26.60
2019-03-01T21:32:54.536Z,28.93
2019-03-01T21:35:25.577Z,22.77
2019-03-01T21:37:55.715Z,28.40
2019-03-01T21:40:25.743Z,26.47
2019-03-01T21:42:59.742Z,25.27
2019-03-01T21:45:28.059Z,20.63
2019-03-01T21:47:58.325Z,18.50
2019-03-01T21:50:29.836Z,18.50
2019-03-01T21:53:01.719Z,31.43
2019-03-01T21:55:31.873Z,19.43
2019-03-01T21:58:03.398Z,19.07
2019-03-01T22:00:34.861Z,22.37
2019-03-01T22:03:05.108Z,25.10
2019-03-01T22:05:36.391Z,20.85
2019-03-01T22:08:09.594Z,18.65
2019-03-01T22:10:39.090Z,23.47
2019-03-01T22:13:09.574Z,26.03
2019-03-01T22:15:40.029Z,23.57
2019-03-01T22:18:10.581Z,22.30
2019-03-01T22:20:41.568Z,20.10
2019-03-01T22:23:15.757Z,15.77
2019-03-01T22:25:44.629Z,17.67
2019-03-01T22:28:14.667Z,26.53
2019-03-01T22:30:44.741Z,15.60
2019-03-01T22:33:17.364Z,20.13
2019-03-01T22:35:47.012Z,15.63
2019-03-01T22:38:17.369Z,20.92
2019-03-01T22:40:47.404Z,19.87
2019-03-01T22:43:17.733Z,17.83
2019-03-01T22:45:48.828Z,15.63
2019-03-01T22:48:20.712Z,20.05
2019-03-01T22:50:51.100Z,19.10
2019-03-01T22:53:21.773Z,18.35
2019-03-01T22:55:51.917Z,21.33
2019-03-01T22:58:22.033Z,21.05
2019-03-01T23:01:24.996Z,20.90
2019-03-01T23:03:57.931Z,18.23
2019-03-01T23:06:28.637Z,17.43
2019-03-01T23:08:58.919Z,23.02
2019-03-01T23:11:32.401Z,22.40
2019-03-01T23:14:01.376Z,25.50
2019-03-01T23:16:31.684Z,21.70
2019-03-01T23:19:01.962Z,17.17
2019-03-01T23:21:35.619Z,20.02
2019-03-01T23:24:04.379Z,14.40
2019-03-01T23:26:34.935Z,23.63
2019-03-01T23:29:05.088Z,17.70
2019-03-01T23:31:35.708Z,22.40
2019-03-01T23:34:07.816Z,18.02
2019-03-01T23:36:37.908Z,19.17
2019-03-01T23:39:08.505Z,17.80
2019-03-01T23:41:43.526Z,17.23
2019-03-01T23:44:13.216Z,17.93
2019-03-01T23:46:43.577Z,17.73
2019-03-01T23:49:14.280Z,16.13
2019-03-01T23:51:45.336Z,22.13
2019-03-01T23:54:16.402Z,19.70
2019-03-01T23:56:46.696Z,23.73
2019-03-01T23:59:16.820Z,20.02
